createdAt,value
2019-05-01T00:02:30.308Z,96343.00
2019-05-01T00:07:35.700Z,96340.00
2019-05-01T00:12:38.422Z,96339.00
2019-05-01T00:17:42.748Z,96333.00
2019-05-01T00:22:45.202Z,96329.00
2019-05-01T00:27:47.839Z,96327.00
2019-05-01T00:32:50.517Z,96329.00
2019-05-01T00:37:53.664Z,96321.00
2019-05-01T00:42:56.425Z,96313.00
2019-05-01T00:47:58.863Z,96308.00
2019-05-01T00:53:01.500Z,96299.00
2019-05-01T00:58:19.844Z,96298.00
2019-05-01T01:03:22.622Z,96301.00
2019-05-01T01:08:25.376Z,96298.00
2019-05-01T01:13:29.239Z,96290.00
2019-05-01T01:18:32.054Z,96287.00
2019-05-01T01:23:35.613Z,96288.00
2019-05-01T01:28:47.425Z,96281.00
2019-05-01T01:33:50.241Z,96292.00
2019-05-01T01:38:53.725Z,96272.00
2019-05-01T01:44:27.715Z,96272.00
2019-05-01T01:55:08.964Z,96267.00
2019-05-01T02:00:15.068Z,96265.00
2019-05-01T02:05:32.011Z,96263.00
2019-05-01T02:10:43.083Z,96264.00
2019-05-01T02:21:21.395Z,96250.00
2019-05-01T02:26:27.167Z,96253.00
2019-05-01T02:31:39.286Z,96256.00
2019-05-01T02:36:43.786Z,96257.00
2019-05-01T02:41:50.738Z,96254.00
2019-05-01T02:46:57.647Z,96252.00
2019-05-01T02:52:04.985Z,96241.00
2019-05-01T02:57:14.255Z,96241.00
2019-05-01T03:02:18.125Z,96238.00
2019-05-01T03:07:23.564Z,96236.00
2019-05-01T03:12:29.453Z,96233.00
2019-05-01T03:17:41.794Z,96233.00
2019-05-01T03:23:07.537Z,96229.00
2019-05-01T03:45:35.066Z,96230.00
2019-05-01T03:50:38.192Z,96237.00
2019-05-01T03:55:40.945Z,96219.00
2019-05-01T04:01:13.503Z,96229.00
2019-05-01T04:06:15.960Z,96220.00
2019-05-01T04:11:19.844Z,96223.00
2019-05-01T04:16:23.158Z,96221.00
2019-05-01T04:21:29.880Z,96221.00
2019-05-01T04:26:32.823Z,96240.00
2019-05-01T04:31:55.339Z,96231.00
2019-05-01T04:37:01.729Z,96234.00
2019-05-01T04:42:04.366Z,96238.00
2019-05-01T04:47:07.037Z,96239.00
2019-05-01T04:52:09.705Z,96246.00
2019-05-01T04:57:12.555Z,96255.00
2019-05-01T05:02:27.626Z,95807.00
2019-05-01T05:07:30.420Z,96258.00
2019-05-01T05:12:47.389Z,96256.00
2019-05-01T05:17:50.198Z,96266.00
2019-05-01T05:22:53.949Z,96258.00
2019-05-01T05:27:58.934Z,96263.00
2019-05-01T05:33:03.708Z,96266.00
2019-05-01T05:38:16.571Z,96269.00
2019-05-01T05:43:19.503Z,96272.00
2019-05-01T05:48:24.069Z,96277.00
2019-05-01T05:53:32.771Z,96284.00
2019-05-01T05:58:43.993Z,96290.00
2019-05-01T06:04:22.222Z,96288.00
2019-05-01T06:09:35.264Z,96286.00
2019-05-01T06:14:49.144Z,96287.00
2019-05-01T06:19:59.575Z,96281.00
2019-05-01T06:25:22.313Z,96282.00
2019-05-01T06:30:21.401Z,96291.00
2019-05-01T06:35:24.632Z,96288.00
2019-05-01T06:40:39.543Z,96275.00
2019-05-01T06:45:54.248Z,96285.00
2019-05-01T06:51:13.000Z,96272.00
2019-05-01T06:56:27.282Z,96275.00
2019-05-01T07:01:33.536Z,96272.00
2019-05-01T07:06:36.361Z,96263.00
2019-05-01T07:11:42.403Z,96268.00
2019-05-01T07:16:46.788Z,96263.00
2019-05-01T07:21:50.549Z,96261.00
2019-05-01T07:26:54.532Z,96257.00
2019-05-01T07:32:01.640Z,96265.00
2019-05-01T07:37:03.136Z,96269.00
2019-05-01T07:42:24.207Z,96270.00
2019-05-01T07:47:37.075Z,96277.00
2019-05-01T07:52:40.517Z,96268.00
2019-05-01T07:57:44.550Z,96282.00
2019-05-01T08:02:47.543Z,96272.00
2019-05-01T08:07:50.144Z,96276.00
2019-05-01T08:12:55.396Z,96292.00
2019-05-01T08:18:11.584Z,96281.00
2019-05-01T08:23:13.903Z,96274.00
2019-05-01T08:28:27.684Z,96283.00
2019-05-01T08:34:06.688Z,96278.00
2019-05-01T08:39:10.483Z,96274.00
2019-05-01T08:44:14.824Z,96256.00
2019-05-01T08:49:24.277Z,96281.00
2019-05-01T08:54:28.872Z,96268.00
2019-05-01T08:59:32.818Z,96278.00
2019-05-01T09:04:35.976Z,96270.00
2019-05-01T09:10:00.548Z,96281.00
2019-05-01T09:15:07.157Z,96282.00
2019-05-01T09:20:12.555Z,96283.00
2019-05-01T09:25:18.214Z,96288.00
2019-05-01T09:30:28.812Z,96286.00
2019-05-01T09:35:32.751Z,96286.00
2019-05-01T09:40:35.187Z,96290.00
2019-05-01T09:45:37.635Z,96295.00
2019-05-01T09:50:46.591Z,96277.00
2019-05-01T09:56:03.216Z,96279.00
2019-05-01T10:01:06.515Z,96277.00
2019-05-01T10:06:12.741Z,96278.00
2019-05-01T10:11:14.667Z,96279.00
2019-05-01T10:16:17.422Z,96282.00
2019-05-01T10:21:22.370Z,96281.00
2019-05-01T10:26:32.252Z,96288.00
2019-05-01T10:31:57.386Z,96280.00
2019-05-01T10:37:06.499Z,96275.00
2019-05-01T10:42:18.750Z,96277.00
2019-05-01T10:47:21.511Z,96271.00
2019-05-01T10:52:24.004Z,96268.00
2019-05-01T10:57:28.019Z,96266.00
2019-05-01T11:02:31.015Z,96265.00
2019-05-01T11:07:33.727Z,96259.00
2019-05-01T11:12:36.748Z,96263.00
2019-05-01T11:17:39.307Z,96255.00
2019-05-01T11:22:41.904Z,96259.00
2019-05-01T11:27:44.360Z,96260.00
2019-05-01T11:33:04.955Z,96256.00
2019-05-01T11:38:37.093Z,96251.00
2019-05-01T11:43:43.227Z,96251.00
2019-05-01T11:48:50.785Z,96252.00
2019-05-01T11:53:53.626Z,96237.00
2019-05-01T11:58:56.611Z,96247.00
2019-05-01T12:03:59.699Z,96246.00
2019-05-01T12:09:04.303Z,96253.00
2019-05-01T12:14:08.803Z,96256.00
2019-05-01T12:19:12.395Z,96253.00
2019-05-01T12:24:14.955Z,96257.00
2019-05-01T12:29:17.535Z,96247.00
2019-05-01T12:34:23.374Z,96257.00
2019-05-01T12:39:42.630Z,96244.00
2019-05-01T12:44:45.430Z,96244.00
2019-05-01T12:49:50.072Z,96239.00
2019-05-01T12:54:58.782Z,96234.00
2019-05-01T13:00:08.797Z,96233.00
2019-05-01T13:05:09.408Z,96227.00
2019-05-01T13:10:12.849Z,96213.00
2019-05-01T13:15:15.483Z,96212.00
2019-05-01T13:20:18.689Z,96206.00
2019-05-01T13:25:21.188Z,96214.00
2019-05-01T13:30:55.288Z,96204.00
2019-05-01T13:35:58.492Z,96195.00
2019-05-01T13:41:01.394Z,96187.00
2019-05-01T13:46:03.904Z,96186.00
2019-05-01T13:51:06.938Z,96178.00
2019-05-01T13:56:21.720Z,96176.00
2019-05-01T14:01:24.414Z,96166.00
2019-05-01T14:06:27.356Z,96168.00
2019-05-01T14:11:30.128Z,96161.00
2019-05-01T14:22:36.375Z,96151.00
2019-05-01T14:27:38.828Z,96148.00
2019-05-01T14:32:43.692Z,96150.00
2019-05-01T14:37:47.264Z,96150.00
2019-05-01T14:42:49.717Z,96144.00
2019-05-01T14:47:52.267Z,96142.00
2019-05-01T14:52:55.979Z,96137.00
2019-05-01T14:57:59.316Z,96141.00
2019-05-01T15:03:02.597Z,96127.00
2019-05-01T15:08:05.242Z,96130.00
2019-05-01T15:13:20.427Z,96124.00
2019-05-01T15:18:42.240Z,96125.00
2019-05-01T15:23:56.391Z,96121.00
2019-05-01T15:29:03.467Z,96112.00
2019-05-01T15:34:06.612Z,96115.00
2019-05-01T15:44:36.437Z,96110.00
2019-05-01T15:49:39.879Z,96096.00
2019-05-01T15:54:42.938Z,96098.00
2019-05-01T15:59:45.727Z,96098.00
2019-05-01T16:04:48.035Z,96091.00
2019-05-01T16:09:50.887Z,96099.00
2019-05-01T16:14:53.351Z,96087.00
2019-05-01T16:19:55.686Z,96091.00
2019-05-01T16:25:00.263Z,96099.00
2019-05-01T16:30:03.661Z,96094.00
2019-05-01T16:35:07.995Z,96096.00
2019-05-01T16:40:28.581Z,96093.00
2019-05-01T16:45:32.019Z,96092.00
2019-05-01T16:50:36.223Z,96088.00
2019-05-01T16:55:38.627Z,96079.00
2019-05-01T17:01:43.349Z,96076.00
2019-05-01T17:06:53.252Z,96078.00
2019-05-01T17:11:55.887Z,96068.00
2019-05-01T17:16:58.449Z,96074.00
2019-05-01T17:22:00.835Z,96073.00
2019-05-01T17:27:03.339Z,96074.00
2019-05-01T17:32:07.543Z,96071.00
2019-05-01T17:37:10.658Z,96078.00
2019-05-01T17:42:13.379Z,96067.00
2019-05-01T17:47:17.835Z,96067.00
2019-05-01T17:52:21.520Z,96065.00
2019-05-01T17:57:26.920Z,96063.00
2019-05-01T18:02:51.743Z,96060.00
2019-05-01T18:07:54.411Z,96058.00
2019-05-01T18:12:56.903Z,96060.00
2019-05-01T18:17:59.508Z,96063.00
2019-05-01T18:23:22.325Z,96066.00
2019-05-01T18:28:43.208Z,96064.00
2019-05-01T18:33:56.904Z,96059.00
2019-05-01T18:39:16.238Z,96058.00
2019-05-01T18:49:57.154Z,96071.00
2019-05-01T19:13:15.062Z,96049.00
2019-05-01T19:24:06.491Z,96050.00
2019-05-01T19:35:02.717Z,96044.00
2019-05-01T19:40:10.101Z,96046.00
2019-05-01T19:50:59.409Z,96038.00
2019-05-01T19:56:06.744Z,96045.00
2019-05-01T20:01:14.299Z,96043.00
2019-05-01T20:06:20.769Z,96040.00
2019-05-01T20:11:29.034Z,96039.00
2019-05-01T20:16:33.439Z,96038.00
2019-05-01T20:21:36.832Z,96036.00
2019-05-01T20:48:55.910Z,96025.00
2019-05-01T20:54:01.079Z,96023.00
2019-05-01T20:59:04.961Z,96015.00
2019-05-01T21:04:31.091Z,96024.00
2019-05-01T21:15:24.743Z,96015.00
2019-05-01T22:24:31.107Z,95984.00
2019-05-01T22:29:36.664Z,95984.00
2019-05-01T22:51:23.565Z,95960.00
2019-05-01T22:56:26.933Z,95957.00
2019-05-01T23:01:32.533Z,95960.00
2019-05-01T23:06:37.319Z,95947.00
2019-05-01T23:34:26.054Z,95932.00
